sensor_id;sensor_type;location;lat;lon;timestamp;P1;durP1;ratioP1;P2;durP2;ratioP2
73585;SDS011;61865;50.232;18.614;2023-01-15T00:02:02;7.20;;;2.70;;
73585;SDS011;61865;50.232;18.614;2023-01-15T00:04:24;4.78;;;2.90;;
73585;SDS011;61865;50.232;18.614;2023-01-15T00:06:45;6.63;;;2.95;;
73585;SDS011;61865;50.232;18.614;2023-01-15T00:09:09;5.78;;;2.97;;
73585;SDS011;61865;50.232;18.614;2023-01-15T00:11:36;5.00;;;2.67;;
73585;SDS011;61865;50.232;18.614;2023-01-15T00:13:58;6.72;;;3.10;;
73585;SDS011;61865;50.232;18.614;2023-01-15T00:16:21;3.33;;;2.40;;
73585;SDS011;61865;50.232;18.614;2023-01-15T00:18:48;5.90;;;2.72;;
73585;SDS011;61865;50.232;18.614;2023-01-15T00:21:11;5.72;;;2.83;;
73585;SDS011;61865;50.232;18.614;2023-01-15T00:23:33;5.65;;;2.90;;
73585;SDS011;61865;50.232;18.614;2023-01-15T00:26:12;4.90;;;2.63;;
73585;SDS011;61865;50.232;18.614;2023-01-15T00:28:55;6.22;;;3.13;;
73585;SDS011;61865;50.232;18.614;2023-01-15T00:31:17;8.18;;;3.35;;
73585;SDS011;61865;50.232;18.614;2023-01-15T00:33:39;4.57;;;2.75;;
73585;SDS011;61865;50.232;18.614;2023-01-15T00:36:01;8.02;;;3.05;;
73585;SDS011;61865;50.232;18.614;2023-01-15T00:38:23;6.10;;;3.03;;
73585;SDS011;61865;50.232;18.614;2023-01-15T00:40:45;4.28;;;2.60;;
73585;SDS011;61865;50.232;18.614;2023-01-15T00:43:11;4.65;;;2.80;;
73585;SDS011;61865;50.232;18.614;2023-01-15T00:45:35;5.97;;;3.25;;
73585;SDS011;61865;50.232;18.614;2023-01-15T00:47:57;4.95;;;2.92;;
73585;SDS011;61865;50.232;18.614;2023-01-15T00:50:18;5.93;;;2.85;;
73585;SDS011;61865;50.232;18.614;2023-01-15T00:52:41;8.43;;;3.00;;
73585;SDS011;61865;50.232;18.614;2023-01-15T00:55:03;6.88;;;2.97;;
73585;SDS011;61865;50.232;18.614;2023-01-15T00:57:26;5.93;;;3.10;;
73585;SDS011;61865;50.232;18.614;2023-01-15T00:59:48;5.90;;;3.53;;
73585;SDS011;61865;50.232;18.614;2023-01-15T01:02:11;6.07;;;3.20;;
73585;SDS011;61865;50.232;18.614;2023-01-15T01:04:34;11.73;;;3.63;;
73585;SDS011;61865;50.232;18.614;2023-01-15T01:06:56;8.13;;;3.40;;
73585;SDS011;61865;50.232;18.614;2023-01-15T01:09:17;5.28;;;3.13;;
73585;SDS011;61865;50.232;18.614;2023-01-15T01:11:39;6.18;;;3.17;;
73585;SDS011;61865;50.232;18.614;2023-01-15T01:14:01;6.32;;;3.42;;
73585;SDS011;61865;50.232;18.614;2023-01-15T01:16:25;7.70;;;3.22;;
73585;SDS011;61865;50.232;18.614;2023-01-15T01:18:52;5.38;;;3.22;;
73585;SDS011;61865;50.232;18.614;2023-01-15T01:21:14;5.32;;;3.00;;
73585;SDS011;61865;50.232;18.614;2023-01-15T01:23:36;6.25;;;2.90;;
73585;SDS011;61865;50.232;18.614;2023-01-15T01:25:58;7.72;;;3.05;;
73585;SDS011;61865;50.232;18.614;2023-01-15T01:28:20;6.68;;;3.65;;
73585;SDS011;61865;50.232;18.614;2023-01-15T01:30:42;6.63;;;2.90;;
73585;SDS011;61865;50.232;18.614;2023-01-15T01:33:04;7.22;;;3.45;;
73585;SDS011;61865;50.232;18.614;2023-01-15T01:35:27;5.38;;;3.00;;
73585;SDS011;61865;50.232;18.614;2023-01-15T01:37:49;5.30;;;3.03;;
73585;SDS011;61865;50.232;18.614;2023-01-15T01:40:11;6.75;;;3.47;;
73585;SDS011;61865;50.232;18.614;2023-01-15T01:42:33;7.53;;;3.53;;
73585;SDS011;61865;50.232;18.614;2023-01-15T01:45:00;6.60;;;3.53;;
73585;SDS011;61865;50.232;18.614;2023-01-15T01:47:28;6.57;;;3.47;;
73585;SDS011;61865;50.232;18.614;2023-01-15T01:49:51;5.65;;;3.17;;
73585;SDS011;61865;50.232;18.614;2023-01-15T01:52:20;6.32;;;3.00;;
73585;SDS011;61865;50.232;18.614;2023-01-15T01:54:44;9.07;;;3.63;;
73585;SDS011;61865;50.232;18.614;2023-01-15T01:57:09;6.85;;;3.05;;
73585;SDS011;61865;50.232;18.614;2023-01-15T01:59:31;6.55;;;3.70;;
73585;SDS011;61865;50.232;18.614;2023-01-15T02:01:53;5.60;;;3.28;;
73585;SDS011;61865;50.232;18.614;2023-01-15T02:04:15;10.88;;;3.40;;
73585;SDS011;61865;50.232;18.614;2023-01-15T02:06:40;5.70;;;2.97;;
73585;SDS011;61865;50.232;18.614;2023-01-15T02:09:04;4.78;;;2.90;;
73585;SDS011;61865;50.232;18.614;2023-01-15T02:11:26;7.20;;;3.05;;
73585;SDS011;61865;50.232;18.614;2023-01-15T02:13:52;6.78;;;3.33;;
73585;SDS011;61865;50.232;18.614;2023-01-15T02:16:20;4.50;;;3.08;;
73585;SDS011;61865;50.232;18.614;2023-01-15T02:18:48;4.28;;;2.88;;
73585;SDS011;61865;50.232;18.614;2023-01-15T02:21:17;6.03;;;3.33;;
73585;SDS011;61865;50.232;18.614;2023-01-15T02:23:59;6.80;;;3.30;;
73585;SDS011;61865;50.232;18.614;2023-01-15T02:29:18;5.30;;;3.00;;
73585;SDS011;61865;50.232;18.614;2023-01-15T02:31:48;5.72;;;3.35;;
73585;SDS011;61865;50.232;18.614;2023-01-15T02:34:12;7.07;;;3.17;;
73585;SDS011;61865;50.232;18.614;2023-01-15T02:36:42;8.48;;;3.20;;
73585;SDS011;61865;50.232;18.614;2023-01-15T02:39:08;6.53;;;3.40;;
73585;SDS011;61865;50.232;18.614;2023-01-15T02:41:35;8.48;;;3.20;;
73585;SDS011;61865;50.232;18.614;2023-01-15T02:44:01;6.00;;;2.95;;
73585;SDS011;61865;50.232;18.614;2023-01-15T02:46:26;4.63;;;2.75;;
73585;SDS011;61865;50.232;18.614;2023-01-15T02:48:51;3.92;;;2.50;;
73585;SDS011;61865;50.232;18.614;2023-01-15T02:51:16;4.72;;;2.88;;
73585;SDS011;61865;50.232;18.614;2023-01-15T02:53:41;4.55;;;2.80;;
73585;SDS011;61865;50.232;18.614;2023-01-15T02:56:09;5.47;;;2.78;;
73585;SDS011;61865;50.232;18.614;2023-01-15T02:58:40;3.70;;;2.27;;
73585;SDS011;61865;50.232;18.614;2023-01-15T03:01:06;3.67;;;2.45;;
73585;SDS011;61865;50.232;18.614;2023-01-15T03:03:33;4.68;;;2.65;;
73585;SDS011;61865;50.232;18.614;2023-01-15T03:06:00;4.30;;;2.63;;
73585;SDS011;61865;50.232;18.614;2023-01-15T03:08:25;7.07;;;4.10;;
73585;SDS011;61865;50.232;18.614;2023-01-15T03:10:49;4.80;;;2.47;;
73585;SDS011;61865;50.232;18.614;2023-01-15T03:13:22;4.65;;;2.90;;
73585;SDS011;61865;50.232;18.614;2023-01-15T03:15:50;6.22;;;2.47;;
73585;SDS011;61865;50.232;18.614;2023-01-15T03:18:40;4.07;;;2.58;;
73585;SDS011;61865;50.232;18.614;2023-01-15T03:21:07;4.90;;;2.65;;
73585;SDS011;61865;50.232;18.614;2023-01-15T03:23:32;4.53;;;2.92;;
73585;SDS011;61865;50.232;18.614;2023-01-15T03:25:58;5.50;;;2.30;;
73585;SDS011;61865;50.232;18.614;2023-01-15T03:28:22;5.07;;;2.75;;
73585;SDS011;61865;50.232;18.614;2023-01-15T03:30:46;4.45;;;2.72;;
73585;SDS011;61865;50.232;18.614;2023-01-15T03:33:08;4.38;;;2.80;;
73585;SDS011;61865;50.232;18.614;2023-01-15T03:38:18;4.07;;;2.10;;
73585;SDS011;61865;50.232;18.614;2023-01-15T03:40:45;4.50;;;2.70;;
73585;SDS011;61865;50.232;18.614;2023-01-15T03:43:13;4.13;;;2.42;;
73585;SDS011;61865;50.232;18.614;2023-01-15T03:45:55;4.50;;;2.70;;
73585;SDS011;61865;50.232;18.614;2023-01-15T03:48:22;5.78;;;2.78;;
73585;SDS011;61865;50.232;18.614;2023-01-15T03:50:51;5.75;;;2.33;;
73585;SDS011;61865;50.232;18.614;2023-01-15T03:53:19;3.17;;;2.20;;
73585;SDS011;61865;50.232;18.614;2023-01-15T03:55:44;4.35;;;2.60;;
73585;SDS011;61865;50.232;18.614;2023-01-15T03:58:13;5.72;;;2.67;;
73585;SDS011;61865;50.232;18.614;2023-01-15T04:00:40;4.38;;;2.58;;
73585;SDS011;61865;50.232;18.614;2023-01-15T04:03:06;4.13;;;2.42;;
73585;SDS011;61865;50.232;18.614;2023-01-15T04:05:30;4.60;;;2.65;;
73585;SDS011;61865;50.232;18.614;2023-01-15T04:07:55;6.05;;;2.80;;
73585;SDS011;61865;50.232;18.614;2023-01-15T04:10:19;5.13;;;2.70;;
73585;SDS011;61865;50.232;18.614;2023-01-15T04:12:41;4.90;;;2.70;;
73585;SDS011;61865;50.232;18.614;2023-01-15T04:15:03;4.03;;;2.55;;
73585;SDS011;61865;50.232;18.614;2023-01-15T04:17:26;3.47;;;2.33;;
73585;SDS011;61865;50.232;18.614;2023-01-15T04:19:48;4.80;;;2.47;;
73585;SDS011;61865;50.232;18.614;2023-01-15T04:22:10;4.45;;;2.53;;
73585;SDS011;61865;50.232;18.614;2023-01-15T04:24:33;4.60;;;2.15;;
73585;SDS011;61865;50.232;18.614;2023-01-15T04:26:55;4.88;;;2.55;;
73585;SDS011;61865;50.232;18.614;2023-01-15T04:29:17;6.53;;;2.50;;
73585;SDS011;61865;50.232;18.614;2023-01-15T04:31:39;3.75;;;2.30;;
73585;SDS011;61865;50.232;18.614;2023-01-15T04:34:01;2.97;;;2.20;;
73585;SDS011;61865;50.232;18.614;2023-01-15T04:36:23;4.55;;;2.53;;
73585;SDS011;61865;50.232;18.614;2023-01-15T04:38:45;7.88;;;2.40;;
73585;SDS011;61865;50.232;18.614;2023-01-15T04:41:09;4.40;;;2.50;;
73585;SDS011;61865;50.232;18.614;2023-01-15T04:44:00;4.35;;;2.38;;
73585;SDS011;61865;50.232;18.614;2023-01-15T04:46:27;4.47;;;2.22;;
73585;SDS011;61865;50.232;18.614;2023-01-15T04:48:49;3.92;;;2.20;;
73585;SDS011;61865;50.232;18.614;2023-01-15T04:51:11;5.05;;;2.45;;
73585;SDS011;61865;50.232;18.614;2023-01-15T04:53:33;3.80;;;2.20;;
73585;SDS011;61865;50.232;18.614;2023-01-15T04:55:58;3.78;;;2.38;;
73585;SDS011;61865;50.232;18.614;2023-01-15T04:58:23;5.57;;;2.95;;
73585;SDS011;61865;50.232;18.614;2023-01-15T05:00:45;6.70;;;2.42;;
73585;SDS011;61865;50.232;18.614;2023-01-15T05:03:07;4.15;;;2.40;;
73585;SDS011;61865;50.232;18.614;2023-01-15T05:05:28;3.92;;;2.40;;
73585;SDS011;61865;50.232;18.614;2023-01-15T05:07:52;5.10;;;2.60;;
73585;SDS011;61865;50.232;18.614;2023-01-15T05:10:14;4.03;;;2.53;;
73585;SDS011;61865;50.232;18.614;2023-01-15T05:12:36;5.80;;;3.50;;
73585;SDS011;61865;50.232;18.614;2023-01-15T05:14:59;5.97;;;2.85;;
73585;SDS011;61865;50.232;18.614;2023-01-15T05:17:21;5.22;;;2.80;;
73585;SDS011;61865;50.232;18.614;2023-01-15T05:19:43;5.45;;;2.60;;
73585;SDS011;61865;50.232;18.614;2023-01-15T05:22:05;5.85;;;2.65;;
73585;SDS011;61865;50.232;18.614;2023-01-15T05:24:29;6.93;;;3.08;;
73585;SDS011;61865;50.232;18.614;2023-01-15T05:26:51;3.85;;;2.40;;
73585;SDS011;61865;50.232;18.614;2023-01-15T05:29:14;4.78;;;2.95;;
73585;SDS011;61865;50.232;18.614;2023-01-15T05:31:37;7.97;;;3.30;;
73585;SDS011;61865;50.232;18.614;2023-01-15T05:34:00;5.88;;;2.90;;
73585;SDS011;61865;50.232;18.614;2023-01-15T05:36:23;5.20;;;2.83;;
73585;SDS011;61865;50.232;18.614;2023-01-15T05:38:47;5.85;;;3.15;;
73585;SDS011;61865;50.232;18.614;2023-01-15T05:41:10;5.20;;;3.00;;
73585;SDS011;61865;50.232;18.614;2023-01-15T05:43:47;5.47;;;3.05;;
73585;SDS011;61865;50.232;18.614;2023-01-15T05:46:09;5.97;;;3.10;;
73585;SDS011;61865;50.232;18.614;2023-01-15T05:48:32;7.53;;;3.63;;
73585;SDS011;61865;50.232;18.614;2023-01-15T05:50:54;8.95;;;2.90;;
73585;SDS011;61865;50.232;18.614;2023-01-15T05:53:16;5.75;;;3.42;;
73585;SDS011;61865;50.232;18.614;2023-01-15T05:55:38;5.40;;;3.20;;
73585;SDS011;61865;50.232;18.614;2023-01-15T05:57:59;6.35;;;3.25;;
73585;SDS011;61865;50.232;18.614;2023-01-15T06:00:21;7.13;;;3.20;;
73585;SDS011;61865;50.232;18.614;2023-01-15T06:02:47;7.00;;;3.47;;
73585;SDS011;61865;50.232;18.614;2023-01-15T06:05:10;8.32;;;3.88;;
73585;SDS011;61865;50.232;18.614;2023-01-15T06:07:33;6.10;;;3.85;;
73585;SDS011;61865;50.232;18.614;2023-01-15T06:09:55;11.10;;;4.22;;
73585;SDS011;61865;50.232;18.614;2023-01-15T06:12:17;6.75;;;3.80;;
73585;SDS011;61865;50.232;18.614;2023-01-15T06:14:39;8.02;;;4.35;;
73585;SDS011;61865;50.232;18.614;2023-01-15T06:17:00;7.35;;;3.72;;
73585;SDS011;61865;50.232;18.614;2023-01-15T06:19:23;8.50;;;4.03;;
73585;SDS011;61865;50.232;18.614;2023-01-15T06:21:46;6.88;;;3.83;;
73585;SDS011;61865;50.232;18.614;2023-01-15T06:24:08;12.77;;;5.50;;
73585;SDS011;61865;50.232;18.614;2023-01-15T06:26:30;12.93;;;4.25;;
73585;SDS011;61865;50.232;18.614;2023-01-15T06:28:52;11.15;;;3.90;;
73585;SDS011;61865;50.232;18.614;2023-01-15T06:31:16;8.43;;;4.75;;
73585;SDS011;61865;50.232;18.614;2023-01-15T06:33:41;7.55;;;4.00;;
73585;SDS011;61865;50.232;18.614;2023-01-15T06:36:04;8.77;;;4.03;;
73585;SDS011;61865;50.232;18.614;2023-01-15T06:38:29;9.02;;;3.80;;
73585;SDS011;61865;50.232;18.614;2023-01-15T06:40:51;10.23;;;3.38;;
73585;SDS011;61865;50.232;18.614;2023-01-15T06:43:13;8.20;;;3.67;;
73585;SDS011;61865;50.232;18.614;2023-01-15T06:45:53;6.95;;;3.75;;
73585;SDS011;61865;50.232;18.614;2023-01-15T06:48:40;7.35;;;4.75;;
73585;SDS011;61865;50.232;18.614;2023-01-15T06:51:03;15.02;;;7.43;;
73585;SDS011;61865;50.232;18.614;2023-01-15T06:53:25;10.80;;;5.25;;
73585;SDS011;61865;50.232;18.614;2023-01-15T06:55:48;15.43;;;5.63;;
73585;SDS011;61865;50.232;18.614;2023-01-15T06:58:10;8.70;;;5.53;;
73585;SDS011;61865;50.232;18.614;2023-01-15T07:00:32;9.95;;;5.93;;
73585;SDS011;61865;50.232;18.614;2023-01-15T07:02:54;12.55;;;8.05;;
73585;SDS011;61865;50.232;18.614;2023-01-15T07:05:16;11.63;;;5.55;;
73585;SDS011;61865;50.232;18.614;2023-01-15T07:07:38;9.73;;;5.50;;
73585;SDS011;61865;50.232;18.614;2023-01-15T07:10:00;13.32;;;7.00;;
73585;SDS011;61865;50.232;18.614;2023-01-15T07:12:23;15.88;;;8.70;;
73585;SDS011;61865;50.232;18.614;2023-01-15T07:14:47;13.10;;;7.10;;
73585;SDS011;61865;50.232;18.614;2023-01-15T07:17:09;10.05;;;5.32;;
73585;SDS011;61865;50.232;18.614;2023-01-15T07:19:31;7.57;;;4.40;;
73585;SDS011;61865;50.232;18.614;2023-01-15T07:21:53;7.72;;;4.63;;
73585;SDS011;61865;50.232;18.614;2023-01-15T07:24:15;7.60;;;4.65;;
73585;SDS011;61865;50.232;18.614;2023-01-15T07:26:37;7.72;;;4.22;;
73585;SDS011;61865;50.232;18.614;2023-01-15T07:29:01;8.18;;;4.43;;
73585;SDS011;61865;50.232;18.614;2023-01-15T07:31:23;7.75;;;4.22;;
73585;SDS011;61865;50.232;18.614;2023-01-15T07:33:45;8.38;;;3.92;;
73585;SDS011;61865;50.232;18.614;2023-01-15T07:36:07;8.60;;;4.45;;
73585;SDS011;61865;50.232;18.614;2023-01-15T07:38:29;7.78;;;4.13;;
73585;SDS011;61865;50.232;18.614;2023-01-15T07:40:51;7.07;;;4.20;;
73585;SDS011;61865;50.232;18.614;2023-01-15T07:43:30;7.20;;;4.07;;
73585;SDS011;61865;50.232;18.614;2023-01-15T07:46:25;8.55;;;4.35;;
73585;SDS011;61865;50.232;18.614;2023-01-15T07:49:07;7.30;;;4.10;;
73585;SDS011;61865;50.232;18.614;2023-01-15T07:51:47;9.55;;;4.57;;
73585;SDS011;61865;50.232;18.614;2023-01-15T07:54:09;9.57;;;4.93;;
73585;SDS011;61865;50.232;18.614;2023-01-15T07:56:31;8.73;;;4.10;;
73585;SDS011;61865;50.232;18.614;2023-01-15T07:58:53;9.65;;;4.57;;
73585;SDS011;61865;50.232;18.614;2023-01-15T08:01:15;11.52;;;4.38;;
73585;SDS011;61865;50.232;18.614;2023-01-15T08:03:38;8.55;;;4.00;;
73585;SDS011;61865;50.232;18.614;2023-01-15T08:06:15;10.45;;;5.22;;
73585;SDS011;61865;50.232;18.614;2023-01-15T08:08:37;9.05;;;4.55;;
73585;SDS011;61865;50.232;18.614;2023-01-15T08:11:00;7.38;;;3.97;;
73585;SDS011;61865;50.232;18.614;2023-01-15T08:13:40;8.20;;;4.67;;
73585;SDS011;61865;50.232;18.614;2023-01-15T08:16:19;11.20;;;4.88;;
73585;SDS011;61865;50.232;18.614;2023-01-15T08:18:42;9.88;;;4.43;;
73585;SDS011;61865;50.232;18.614;2023-01-15T08:21:11;10.40;;;5.05;;
73585;SDS011;61865;50.232;18.614;2023-01-15T08:23:34;10.25;;;5.32;;
73585;SDS011;61865;50.232;18.614;2023-01-15T08:25:57;11.05;;;4.78;;
73585;SDS011;61865;50.232;18.614;2023-01-15T08:28:19;9.73;;;4.85;;
73585;SDS011;61865;50.232;18.614;2023-01-15T08:30:41;8.85;;;4.70;;
73585;SDS011;61865;50.232;18.614;2023-01-15T08:33:03;8.95;;;4.18;;
73585;SDS011;61865;50.232;18.614;2023-01-15T08:35:26;8.63;;;4.22;;
73585;SDS011;61865;50.232;18.614;2023-01-15T08:37:48;8.55;;;3.92;;
73585;SDS011;61865;50.232;18.614;2023-01-15T08:40:10;7.93;;;3.80;;
73585;SDS011;61865;50.232;18.614;2023-01-15T08:42:33;6.75;;;3.85;;
73585;SDS011;61865;50.232;18.614;2023-01-15T08:44:55;10.93;;;4.55;;
73585;SDS011;61865;50.232;18.614;2023-01-15T08:47:17;5.90;;;3.88;;
73585;SDS011;61865;50.232;18.614;2023-01-15T08:49:39;5.15;;;3.30;;
73585;SDS011;61865;50.232;18.614;2023-01-15T08:52:02;6.90;;;3.50;;
73585;SDS011;61865;50.232;18.614;2023-01-15T08:54:24;8.90;;;3.83;;
73585;SDS011;61865;50.232;18.614;2023-01-15T08:56:46;8.57;;;4.30;;
73585;SDS011;61865;50.232;18.614;2023-01-15T08:59:09;6.68;;;3.60;;
73585;SDS011;61865;50.232;18.614;2023-01-15T09:01:31;7.35;;;3.65;;
73585;SDS011;61865;50.232;18.614;2023-01-15T09:03:53;7.72;;;3.80;;
73585;SDS011;61865;50.232;18.614;2023-01-15T09:06:15;9.48;;;3.70;;
73585;SDS011;61865;50.232;18.614;2023-01-15T09:08:39;6.78;;;3.72;;
73585;SDS011;61865;50.232;18.614;2023-01-15T09:11:01;7.93;;;4.03;;
73585;SDS011;61865;50.232;18.614;2023-01-15T09:13:24;6.57;;;4.07;;
73585;SDS011;61865;50.232;18.614;2023-01-15T09:15:47;12.30;;;4.18;;
73585;SDS011;61865;50.232;18.614;2023-01-15T09:18:09;9.15;;;4.07;;
73585;SDS011;61865;50.232;18.614;2023-01-15T09:20:31;7.32;;;3.75;;
73585;SDS011;61865;50.232;18.614;2023-01-15T09:22:53;8.55;;;3.78;;
73585;SDS011;61865;50.232;18.614;2023-01-15T09:25:16;10.27;;;4.53;;
73585;SDS011;61865;50.232;18.614;2023-01-15T09:27:39;10.05;;;4.80;;
73585;SDS011;61865;50.232;18.614;2023-01-15T09:30:01;6.70;;;4.15;;
73585;SDS011;61865;50.232;18.614;2023-01-15T09:32:23;8.40;;;4.07;;
73585;SDS011;61865;50.232;18.614;2023-01-15T09:34:45;12.65;;;3.97;;
73585;SDS011;61865;50.232;18.614;2023-01-15T09:37:07;9.82;;;4.70;;
73585;SDS011;61865;50.232;18.614;2023-01-15T09:39:29;12.25;;;5.13;;
73585;SDS011;61865;50.232;18.614;2023-01-15T09:41:55;12.80;;;4.70;;
73585;SDS011;61865;50.232;18.614;2023-01-15T09:44:30;9.32;;;4.60;;
73585;SDS011;61865;50.232;18.614;2023-01-15T09:47:00;9.30;;;4.35;;
73585;SDS011;61865;50.232;18.614;2023-01-15T09:49:32;10.82;;;4.60;;
73585;SDS011;61865;50.232;18.614;2023-01-15T09:52:03;10.73;;;4.82;;
73585;SDS011;61865;50.232;18.614;2023-01-15T09:54:37;9.43;;;5.35;;
73585;SDS011;61865;50.232;18.614;2023-01-15T09:57:08;10.90;;;4.40;;
73585;SDS011;61865;50.232;18.614;2023-01-15T09:59:32;14.38;;;5.40;;
73585;SDS011;61865;50.232;18.614;2023-01-15T10:01:57;10.30;;;5.63;;
73585;SDS011;61865;50.232;18.614;2023-01-15T10:04:27;11.88;;;4.82;;
73585;SDS011;61865;50.232;18.614;2023-01-15T10:06:55;8.63;;;4.72;;
73585;SDS011;61865;50.232;18.614;2023-01-15T10:09:24;9.45;;;4.60;;
73585;SDS011;61865;50.232;18.614;2023-01-15T10:11:54;10.57;;;4.87;;
73585;SDS011;61865;50.232;18.614;2023-01-15T10:14:41;9.63;;;4.80;;
73585;SDS011;61865;50.232;18.614;2023-01-15T10:17:20;13.88;;;4.70;;
73585;SDS011;61865;50.232;18.614;2023-01-15T10:19:46;10.43;;;4.82;;
73585;SDS011;61865;50.232;18.614;2023-01-15T10:22:09;8.68;;;4.28;;
73585;SDS011;61865;50.232;18.614;2023-01-15T10:24:38;9.82;;;3.53;;
73585;SDS011;61865;50.232;18.614;2023-01-15T10:27:04;7.47;;;3.78;;
73585;SDS011;61865;50.232;18.614;2023-01-15T10:29:36;10.77;;;4.10;;
73585;SDS011;61865;50.232;18.614;2023-01-15T10:32:08;7.60;;;4.03;;
73585;SDS011;61865;50.232;18.614;2023-01-15T10:34:56;6.32;;;3.55;;
73585;SDS011;61865;50.232;18.614;2023-01-15T10:37:32;8.40;;;4.00;;
73585;SDS011;61865;50.232;18.614;2023-01-15T10:42:56;15.02;;;5.22;;
73585;SDS011;61865;50.232;18.614;2023-01-15T10:45:26;10.95;;;4.90;;
73585;SDS011;61865;50.232;18.614;2023-01-15T10:47:56;8.95;;;4.95;;
73585;SDS011;61865;50.232;18.614;2023-01-15T10:50:23;11.27;;;5.10;;
73585;SDS011;61865;50.232;18.614;2023-01-15T10:52:47;8.60;;;4.55;;
73585;SDS011;61865;50.232;18.614;2023-01-15T10:55:18;8.15;;;4.22;;
73585;SDS011;61865;50.232;18.614;2023-01-15T10:57:46;7.07;;;3.53;;
73585;SDS011;61865;50.232;18.614;2023-01-15T11:00:14;7.10;;;3.78;;
73585;SDS011;61865;50.232;18.614;2023-01-15T11:02:38;8.15;;;3.70;;
73585;SDS011;61865;50.232;18.614;2023-01-15T11:05:02;7.35;;;3.83;;
73585;SDS011;61865;50.232;18.614;2023-01-15T11:07:26;7.90;;;4.20;;
73585;SDS011;61865;50.232;18.614;2023-01-15T11:09:55;9.33;;;4.47;;
73585;SDS011;61865;50.232;18.614;2023-01-15T11:12:23;7.93;;;4.68;;
73585;SDS011;61865;50.232;18.614;2023-01-15T11:15:12;7.93;;;4.25;;
73585;SDS011;61865;50.232;18.614;2023-01-15T11:17:54;8.45;;;4.10;;
73585;SDS011;61865;50.232;18.614;2023-01-15T11:20:34;6.85;;;3.83;;
73585;SDS011;61865;50.232;18.614;2023-01-15T11:23:06;8.15;;;4.53;;
73585;SDS011;61865;50.232;18.614;2023-01-15T11:25:30;11.93;;;5.70;;
73585;SDS011;61865;50.232;18.614;2023-01-15T11:27:53;9.82;;;4.97;;
73585;SDS011;61865;50.232;18.614;2023-01-15T11:30:25;8.00;;;4.30;;
73585;SDS011;61865;50.232;18.614;2023-01-15T11:32:54;9.48;;;4.78;;
73585;SDS011;61865;50.232;18.614;2023-01-15T11:35:17;9.50;;;4.18;;
73585;SDS011;61865;50.232;18.614;2023-01-15T11:37:39;6.18;;;3.88;;
73585;SDS011;61865;50.232;18.614;2023-01-15T11:40:01;9.18;;;4.50;;
73585;SDS011;61865;50.232;18.614;2023-01-15T11:42:27;19.92;;;8.70;;
73585;SDS011;61865;50.232;18.614;2023-01-15T11:45:13;26.33;;;11.00;;
73585;SDS011;61865;50.232;18.614;2023-01-15T11:47:56;26.63;;;11.40;;
73585;SDS011;61865;50.232;18.614;2023-01-15T11:50:37;13.80;;;6.63;;
73585;SDS011;61865;50.232;18.614;2023-01-15T11:53:07;11.52;;;5.78;;
73585;SDS011;61865;50.232;18.614;2023-01-15T11:55:35;13.93;;;6.30;;
73585;SDS011;61865;50.232;18.614;2023-01-15T11:57:57;11.73;;;5.93;;
73585;SDS011;61865;50.232;18.614;2023-01-15T12:00:21;12.88;;;6.22;;
73585;SDS011;61865;50.232;18.614;2023-01-15T12:02:45;16.60;;;6.70;;
73585;SDS011;61865;50.232;18.614;2023-01-15T12:05:14;14.98;;;6.97;;
73585;SDS011;61865;50.232;18.614;2023-01-15T12:07:39;13.82;;;7.00;;
73585;SDS011;61865;50.232;18.614;2023-01-15T12:10:05;16.08;;;6.97;;
73585;SDS011;61865;50.232;18.614;2023-01-15T12:13:02;17.20;;;9.02;;
73585;SDS011;61865;50.232;18.614;2023-01-15T12:15:36;17.48;;;8.80;;
73585;SDS011;61865;50.232;18.614;2023-01-15T12:21:19;15.40;;;7.35;;
73585;SDS011;61865;50.232;18.614;2023-01-15T12:24:02;18.10;;;7.88;;
73585;SDS011;61865;50.232;18.614;2023-01-15T12:26:48;18.27;;;8.55;;
73585;SDS011;61865;50.232;18.614;2023-01-15T12:29:23;18.48;;;9.50;;
73585;SDS011;61865;50.232;18.614;2023-01-15T12:31:50;18.25;;;8.60;;
73585;SDS011;61865;50.232;18.614;2023-01-15T12:34:16;19.42;;;8.90;;
73585;SDS011;61865;50.232;18.614;2023-01-15T12:36:43;15.30;;;7.53;;
73585;SDS011;61865;50.232;18.614;2023-01-15T12:39:12;17.17;;;7.97;;
73585;SDS011;61865;50.232;18.614;2023-01-15T12:41:39;15.57;;;7.95;;
73585;SDS011;61865;50.232;18.614;2023-01-15T12:44:21;17.60;;;8.68;;
73585;SDS011;61865;50.232;18.614;2023-01-15T12:47:10;17.55;;;9.30;;
73585;SDS011;61865;50.232;18.614;2023-01-15T12:49:39;16.50;;;8.50;;
73585;SDS011;61865;50.232;18.614;2023-01-15T12:52:09;15.45;;;7.40;;
73585;SDS011;61865;50.232;18.614;2023-01-15T12:54:35;16.83;;;7.95;;
73585;SDS011;61865;50.232;18.614;2023-01-15T12:57:04;14.00;;;7.53;;
73585;SDS011;61865;50.232;18.614;2023-01-15T12:59:34;16.40;;;8.07;;
73585;SDS011;61865;50.232;18.614;2023-01-15T13:02:09;19.08;;;9.20;;
73585;SDS011;61865;50.232;18.614;2023-01-15T13:04:47;21.30;;;9.43;;
73585;SDS011;61865;50.232;18.614;2023-01-15T13:07:16;18.45;;;10.13;;
73585;SDS011;61865;50.232;18.614;2023-01-15T13:09:43;21.58;;;9.38;;
73585;SDS011;61865;50.232;18.614;2023-01-15T13:12:13;19.15;;;8.35;;
73585;SDS011;61865;50.232;18.614;2023-01-15T13:14:36;15.50;;;7.82;;
73585;SDS011;61865;50.232;18.614;2023-01-15T13:16:59;20.83;;;10.02;;
73585;SDS011;61865;50.232;18.614;2023-01-15T13:19:31;21.95;;;11.25;;
73585;SDS011;61865;50.232;18.614;2023-01-15T13:22:01;23.58;;;11.55;;
73585;SDS011;61865;50.232;18.614;2023-01-15T13:24:37;33.67;;;14.20;;
73585;SDS011;61865;50.232;18.614;2023-01-15T13:27:17;12.43;;;6.55;;
73585;SDS011;61865;50.232;18.614;2023-01-15T13:29:48;10.68;;;6.00;;
73585;SDS011;61865;50.232;18.614;2023-01-15T13:32:25;11.40;;;5.63;;
73585;SDS011;61865;50.232;18.614;2023-01-15T13:34:52;9.77;;;5.47;;
73585;SDS011;61865;50.232;18.614;2023-01-15T13:37:22;16.02;;;5.72;;
73585;SDS011;61865;50.232;18.614;2023-01-15T13:39:49;10.57;;;5.53;;
73585;SDS011;61865;50.232;18.614;2023-01-15T13:42:15;12.30;;;6.15;;
73585;SDS011;61865;50.232;18.614;2023-01-15T13:44:52;13.75;;;7.97;;
73585;SDS011;61865;50.232;18.614;2023-01-15T13:47:17;16.35;;;7.68;;
73585;SDS011;61865;50.232;18.614;2023-01-15T13:49:44;11.75;;;6.22;;
73585;SDS011;61865;50.232;18.614;2023-01-15T13:52:17;10.32;;;5.72;;
73585;SDS011;61865;50.232;18.614;2023-01-15T13:54:43;13.32;;;5.95;;
73585;SDS011;61865;50.232;18.614;2023-01-15T13:57:18;10.45;;;5.30;;
73585;SDS011;61865;50.232;18.614;2023-01-15T13:59:51;10.57;;;5.13;;
73585;SDS011;61865;50.232;18.614;2023-01-15T14:02:24;10.80;;;5.20;;
73585;SDS011;61865;50.232;18.614;2023-01-15T14:04:47;8.48;;;4.68;;
73585;SDS011;61865;50.232;18.614;2023-01-15T14:07:16;11.05;;;5.35;;
73585;SDS011;61865;50.232;18.614;2023-01-15T14:09:39;13.02;;;5.78;;
73585;SDS011;61865;50.232;18.614;2023-01-15T14:12:03;15.98;;;6.38;;
73585;SDS011;61865;50.232;18.614;2023-01-15T14:14:50;11.48;;;6.43;;
73585;SDS011;61865;50.232;18.614;2023-01-15T14:17:39;17.38;;;7.38;;
73585;SDS011;61865;50.232;18.614;2023-01-15T14:20:29;18.77;;;8.52;;
73585;SDS011;61865;50.232;18.614;2023-01-15T14:23:02;14.73;;;6.57;;
73585;SDS011;61865;50.232;18.614;2023-01-15T14:25:40;18.95;;;6.88;;
73585;SDS011;61865;50.232;18.614;2023-01-15T14:28:19;28.73;;;15.45;;
73585;SDS011;61865;50.232;18.614;2023-01-15T14:33:54;39.85;;;18.50;;
73585;SDS011;61865;50.232;18.614;2023-01-15T14:36:33;23.65;;;12.68;;
73585;SDS011;61865;50.232;18.614;2023-01-15T14:38:59;33.22;;;14.90;;
73585;SDS011;61865;50.232;18.614;2023-01-15T14:41:24;25.25;;;11.27;;
73585;SDS011;61865;50.232;18.614;2023-01-15T14:43:48;17.67;;;9.15;;